sensor_id;sensor_type;location;lat;lon;timestamp;pressure;altitude;pressure_sealevel;temperature;humidity
77685;BME280;66844;46.092;18.268;2023-06-22T00:00:20;99418.03;;;23.19;76.92
77685;BME280;66844;46.092;18.268;2023-06-22T00:00:53;99418.88;;;23.20;76.33
77685;BME280;66844;46.092;18.268;2023-06-22T00:01:25;99411.94;;;23.26;76.18
77685;BME280;66844;46.092;18.268;2023-06-22T00:01:58;99405.66;;;23.25;76.04
77685;BME280;66844;46.092;18.268;2023-06-22T00:02:30;99406.16;;;23.29;76.36
77685;BME280;66844;46.092;18.268;2023-06-22T00:03:02;99410.09;;;23.26;76.71
77685;BME280;66844;46.092;18.268;2023-06-22T00:03:34;99408.03;;;23.28;77.33
77685;BME280;66844;46.092;18.268;2023-06-22T00:04:07;99400.53;;;23.30;76.96
77685;BME280;66844;46.092;18.268;2023-06-22T00:04:39;99403.94;;;23.32;76.34
77685;BME280;66844;46.092;18.268;2023-06-22T00:05:11;99401.41;;;23.31;77.49
77685;BME280;66844;46.092;18.268;2023-06-22T00:05:43;99400.38;;;23.32;76.63
77685;BME280;66844;46.092;18.268;2023-06-22T00:06:15;99407.53;;;23.33;77.39
77685;BME280;66844;46.092;18.268;2023-06-22T00:06:47;99396.81;;;23.31;77.04
77685;BME280;66844;46.092;18.268;2023-06-22T00:07:19;99398.03;;;23.29;76.24
77685;BME280;66844;46.092;18.268;2023-06-22T00:07:51;99404.81;;;23.33;76.56
77685;BME280;66844;46.092;18.268;2023-06-22T00:08:23;99400.22;;;23.33;76.22
77685;BME280;66844;46.092;18.268;2023-06-22T00:08:55;99398.38;;;23.34;75.73
77685;BME280;66844;46.092;18.268;2023-06-22T00:09:27;99396.66;;;23.33;76.51
77685;BME280;66844;46.092;18.268;2023-06-22T00:09:59;99397.50;;;23.33;75.81
77685;BME280;66844;46.092;18.268;2023-06-22T00:10:31;99390.22;;;23.34;75.88
77685;BME280;66844;46.092;18.268;2023-06-22T00:11:03;99392.75;;;23.35;75.71
77685;BME280;66844;46.092;18.268;2023-06-22T00:11:38;99392.75;;;23.35;76.28
77685;BME280;66844;46.092;18.268;2023-06-22T00:12:10;99390.72;;;23.37;76.13
77685;BME280;66844;46.092;18.268;2023-06-22T00:12:44;99382.72;;;23.36;75.55
77685;BME280;66844;46.092;18.268;2023-06-22T00:13:16;99381.03;;;23.35;76.21
77685;BME280;66844;46.092;18.268;2023-06-22T00:13:49;99378.00;;;23.30;76.58
77685;BME280;66844;46.092;18.268;2023-06-22T00:14:22;99381.72;;;23.29;76.35
77685;BME280;66844;46.092;18.268;2023-06-22T00:14:54;99385.09;;;23.31;76.28
77685;BME280;66844;46.092;18.268;2023-06-22T00:15:27;99370.88;;;23.29;76.18
77685;BME280;66844;46.092;18.268;2023-06-22T00:15:59;99380.53;;;23.31;75.89
77685;BME280;66844;46.092;18.268;2023-06-22T00:16:33;99378.81;;;23.30;76.25
77685;BME280;66844;46.092;18.268;2023-06-22T00:17:05;99371.53;;;23.31;76.46
77685;BME280;66844;46.092;18.268;2023-06-22T00:17:37;99379.19;;;23.27;76.82
77685;BME280;66844;46.092;18.268;2023-06-22T00:18:10;99377.16;;;23.29;76.68
77685;BME280;66844;46.092;18.268;2023-06-22T00:18:42;99374.09;;;23.24;76.21
77685;BME280;66844;46.092;18.268;2023-06-22T00:19:18;99375.97;;;23.24;76.32
77685;BME280;66844;46.092;18.268;2023-06-22T00:19:52;99379.69;;;23.23;76.90
77685;BME280;66844;46.092;18.268;2023-06-22T00:20:26;99376.16;;;23.22;76.63
77685;BME280;66844;46.092;18.268;2023-06-22T00:21:02;99374.78;;;23.18;76.62
77685;BME280;66844;46.092;18.268;2023-06-22T00:21:34;99369.00;;;23.21;77.20
77685;BME280;66844;46.092;18.268;2023-06-22T00:22:06;99373.25;;;23.24;76.72
77685;BME280;66844;46.092;18.268;2023-06-22T00:22:38;99376.97;;;23.23;76.72
77685;BME280;66844;46.092;18.268;2023-06-22T00:23:10;99373.44;;;23.22;76.67
77685;BME280;66844;46.092;18.268;2023-06-22T00:23:42;99366.47;;;23.19;76.69
77685;BME280;66844;46.092;18.268;2023-06-22T00:24:15;99368.81;;;23.23;77.09
77685;BME280;66844;46.092;18.268;2023-06-22T00:24:48;99376.81;;;23.24;76.81
77685;BME280;66844;46.092;18.268;2023-06-22T00:25:20;99371.72;;;23.21;76.26
77685;BME280;66844;46.092;18.268;2023-06-22T00:25:52;99379.53;;;23.24;76.00
77685;BME280;66844;46.092;18.268;2023-06-22T00:26:24;99378.16;;;23.28;76.35
77685;BME280;66844;46.092;18.268;2023-06-22T00:26:56;99384.25;;;23.30;76.35
77685;BME280;66844;46.092;18.268;2023-06-22T00:27:28;99385.97;;;23.31;76.17
77685;BME280;66844;46.092;18.268;2023-06-22T00:28:01;99382.22;;;23.32;76.47
77685;BME280;66844;46.092;18.268;2023-06-22T00:28:33;99394.59;;;23.35;76.14
77685;BME280;66844;46.092;18.268;2023-06-22T00:29:05;99406.16;;;23.37;75.63
77685;BME280;66844;46.092;18.268;2023-06-22T00:29:37;99407.00;;;23.37;76.64
77685;BME280;66844;46.092;18.268;2023-06-22T00:30:10;99402.41;;;23.38;76.43
77685;BME280;66844;46.092;18.268;2023-06-22T00:30:42;99411.25;;;23.40;75.68
77685;BME280;66844;46.092;18.268;2023-06-22T00:31:14;99412.94;;;23.41;75.25
77685;BME280;66844;46.092;18.268;2023-06-22T00:31:46;99411.06;;;23.41;74.82
77685;BME280;66844;46.092;18.268;2023-06-22T00:32:18;99412.78;;;23.42;75.30
77685;BME280;66844;46.092;18.268;2023-06-22T00:32:50;99424.50;;;23.43;75.13
77685;BME280;66844;46.092;18.268;2023-06-22T00:33:22;99424.34;;;23.44;75.25
77685;BME280;66844;46.092;18.268;2023-06-22T00:33:55;99425.84;;;23.47;75.10
77685;BME280;66844;46.092;18.268;2023-06-22T00:34:26;99418.06;;;23.44;75.29
77685;BME280;66844;46.092;18.268;2023-06-22T00:34:58;99425.69;;;23.48;75.22
77685;BME280;66844;46.092;18.268;2023-06-22T00:35:32;99430.09;;;23.49;73.98
77685;BME280;66844;46.092;18.268;2023-06-22T00:36:04;99422.44;;;23.53;74.38
77685;BME280;66844;46.092;18.268;2023-06-22T00:36:36;99430.28;;;23.56;74.14
77685;BME280;66844;46.092;18.268;2023-06-22T00:37:08;99432.44;;;23.60;73.54
77685;BME280;66844;46.092;18.268;2023-06-22T00:37:40;99423.28;;;23.61;74.91
77685;BME280;66844;46.092;18.268;2023-06-22T00:38:14;99427.72;;;23.62;74.14
77685;BME280;66844;46.092;18.268;2023-06-22T00:38:45;99424.47;;;23.67;73.87
77685;BME280;66844;46.092;18.268;2023-06-22T00:39:18;99425.13;;;23.69;73.38
77685;BME280;66844;46.092;18.268;2023-06-22T00:39:49;99426.66;;;23.72;72.81
77685;BME280;66844;46.092;18.268;2023-06-22T00:40:21;99433.78;;;23.73;72.73
77685;BME280;66844;46.092;18.268;2023-06-22T00:40:54;99430.06;;;23.74;73.37
77685;BME280;66844;46.092;18.268;2023-06-22T00:41:26;99428.00;;;23.76;73.05
77685;BME280;66844;46.092;18.268;2023-06-22T00:42:00;99429.72;;;23.77;73.08
77685;BME280;66844;46.092;18.268;2023-06-22T00:42:32;99436.66;;;23.79;73.10
77685;BME280;66844;46.092;18.268;2023-06-22T00:43:05;99436.50;;;23.81;72.83
77685;BME280;66844;46.092;18.268;2023-06-22T00:43:37;99440.06;;;23.81;72.56
77685;BME280;66844;46.092;18.268;2023-06-22T00:44:09;99438.19;;;23.82;72.93
77685;BME280;66844;46.092;18.268;2023-06-22T00:44:41;99445.13;;;23.84;72.37
77685;BME280;66844;46.092;18.268;2023-06-22T00:45:13;99443.28;;;23.85;73.31
77685;BME280;66844;46.092;18.268;2023-06-22T00:45:45;99446.84;;;23.85;72.55
77685;BME280;66844;46.092;18.268;2023-06-22T00:46:17;99453.78;;;23.88;72.56
77685;BME280;66844;46.092;18.268;2023-06-22T00:46:49;99447.50;;;23.87;72.61
77685;BME280;66844;46.092;18.268;2023-06-22T00:47:21;99451.06;;;23.88;72.98
77685;BME280;66844;46.092;18.268;2023-06-22T00:47:56;99462.28;;;23.85;73.17
77685;BME280;66844;46.092;18.268;2023-06-22T00:48:29;99452.28;;;23.85;72.74
77685;BME280;66844;46.092;18.268;2023-06-22T00:49:01;99452.94;;;23.87;72.02
77685;BME280;66844;46.092;18.268;2023-06-22T00:49:33;99456.34;;;23.89;72.73
77685;BME280;66844;46.092;18.268;2023-06-22T00:50:06;99453.78;;;23.88;72.35
77685;BME280;66844;46.092;18.268;2023-06-22T00:50:39;99450.91;;;23.89;72.82
77685;BME280;66844;46.092;18.268;2023-06-22T00:51:12;99453.94;;;23.94;72.87
77685;BME280;66844;46.092;18.268;2023-06-22T00:51:44;99457.34;;;23.96;72.14
77685;BME280;66844;46.092;18.268;2023-06-22T00:52:20;99448.50;;;23.94;72.50
77685;BME280;66844;46.092;18.268;2023-06-22T00:52:56;99456.13;;;23.99;71.93
77685;BME280;66844;46.092;18.268;2023-06-22T00:53:28;99447.63;;;24.02;71.74
77685;BME280;66844;46.092;18.268;2023-06-22T00:54:00;99445.91;;;24.01;72.08
77685;BME280;66844;46.092;18.268;2023-06-22T00:54:32;99459.34;;;24.02;71.42
77685;BME280;66844;46.092;18.268;2023-06-22T00:55:06;99446.63;;;24.03;71.50
77685;BME280;66844;46.092;18.268;2023-06-22T00:55:42;99445.59;;;24.04;71.43
77685;BME280;66844;46.092;18.268;2023-06-22T00:56:19;99443.91;;;24.03;71.73
77685;BME280;66844;46.092;18.268;2023-06-22T00:56:54;99440.50;;;24.01;71.59
77685;BME280;66844;46.092;18.268;2023-06-22T00:57:28;99446.78;;;24.01;71.36
77685;BME280;66844;46.092;18.268;2023-06-22T00:58:00;99435.06;;;24.01;71.30
77685;BME280;66844;46.092;18.268;2023-06-22T00:58:32;99443.41;;;23.99;71.92
77685;BME280;66844;46.092;18.268;2023-06-22T00:59:04;99442.38;;;24.00;71.54
77685;BME280;66844;46.092;18.268;2023-06-22T00:59:36;99440.69;;;23.99;71.68
77685;BME280;66844;46.092;18.268;2023-06-22T01:00:09;99443.41;;;23.99;72.28
77685;BME280;66844;46.092;18.268;2023-06-22T01:00:43;99443.19;;;24.01;72.20
77685;BME280;66844;46.092;18.268;2023-06-22T01:01:16;99443.91;;;24.03;72.16
77685;BME280;66844;46.092;18.268;2023-06-22T01:01:48;99440.81;;;24.06;71.39
77685;BME280;66844;46.092;18.268;2023-06-22T01:02:20;99434.38;;;24.07;71.54
77685;BME280;66844;46.092;18.268;2023-06-22T01:02:53;99435.22;;;24.07;71.71
77685;BME280;66844;46.092;18.268;2023-06-22T01:03:25;99435.53;;;24.12;71.46
77685;BME280;66844;46.092;18.268;2023-06-22T01:03:57;99429.22;;;24.12;71.53
77685;BME280;66844;46.092;18.268;2023-06-22T01:04:38;99430.81;;;24.14;71.52
77685;BME280;66844;46.092;18.268;2023-06-22T01:05:10;99429.09;;;24.13;70.81
77685;BME280;66844;46.092;18.268;2023-06-22T01:05:42;99435.03;;;24.17;71.50
77685;BME280;66844;46.092;18.268;2023-06-22T01:06:28;99427.56;;;24.19;71.10
77685;BME280;66844;46.092;18.268;2023-06-22T01:07:35;99435.88;;;24.18;71.33
77685;BME280;66844;46.092;18.268;2023-06-22T01:09:08;99436.38;;;24.21;70.71
77685;BME280;66844;46.092;18.268;2023-06-22T01:11:05;99440.44;;;24.25;70.45
77685;BME280;66844;46.092;18.268;2023-06-22T01:11:42;99445.53;;;24.28;70.03
77685;BME280;66844;46.092;18.268;2023-06-22T01:12:18;99439.91;;;24.30;70.22
77685;BME280;66844;46.092;18.268;2023-06-22T01:12:55;99437.19;;;24.30;70.31
77685;BME280;66844;46.092;18.268;2023-06-22T01:13:37;99440.56;;;24.32;69.88
77685;BME280;66844;46.092;18.268;2023-06-22T01:15:23;99431.41;;;24.33;69.73
77685;BME280;66844;46.092;18.268;2023-06-22T01:16:40;99431.56;;;24.31;69.87
77685;BME280;66844;46.092;18.268;2023-06-22T01:17:15;99438.72;;;24.32;70.09
77685;BME280;66844;46.092;18.268;2023-06-22T01:17:48;99438.06;;;24.30;70.57
77685;BME280;66844;46.092;18.268;2023-06-22T01:18:23;99436.72;;;24.26;69.88
77685;BME280;66844;46.092;18.268;2023-06-22T01:19:01;99436.50;;;24.28;70.04
77685;BME280;66844;46.092;18.268;2023-06-22T01:19:46;99443.00;;;24.27;70.29
77685;BME280;66844;46.092;18.268;2023-06-22T01:20:20;99434.00;;;24.26;69.95
77685;BME280;66844;46.092;18.268;2023-06-22T01:20:54;99436.50;;;24.28;69.95
77685;BME280;66844;46.092;18.268;2023-06-22T01:21:31;99442.81;;;24.28;70.32
77685;BME280;66844;46.092;18.268;2023-06-22T01:22:06;99440.41;;;24.33;69.85
77685;BME280;66844;46.092;18.268;2023-06-22T01:25:28;99440.22;;;24.35;69.94
77685;BME280;66844;46.092;18.268;2023-06-22T01:26:13;99435.63;;;24.35;70.12
77685;BME280;66844;46.092;18.268;2023-06-22T01:28:05;99432.63;;;24.30;70.09
77685;BME280;66844;46.092;18.268;2023-06-22T01:28:46;99439.72;;;24.31;69.92
77685;BME280;66844;46.092;18.268;2023-06-22T01:29:21;99444.31;;;24.31;69.49
77685;BME280;66844;46.092;18.268;2023-06-22T01:29:56;99443.28;;;24.32;70.11
77685;BME280;66844;46.092;18.268;2023-06-22T01:30:32;99443.13;;;24.33;70.10
77685;BME280;66844;46.092;18.268;2023-06-22T01:31:06;99449.59;;;24.32;69.83
77685;BME280;66844;46.092;18.268;2023-06-22T01:31:42;99449.59;;;24.32;70.42
77685;BME280;66844;46.092;18.268;2023-06-22T01:32:16;99451.28;;;24.33;70.49
77685;BME280;66844;46.092;18.268;2023-06-22T01:32:50;99453.31;;;24.31;70.35
77685;BME280;66844;46.092;18.268;2023-06-22T01:33:23;99448.94;;;24.30;70.80
77685;BME280;66844;46.092;18.268;2023-06-22T01:33:58;99454.38;;;24.30;69.77
77685;BME280;66844;46.092;18.268;2023-06-22T01:34:31;99450.78;;;24.30;70.31
77685;BME280;66844;46.092;18.268;2023-06-22T01:35:07;99452.47;;;24.31;70.24
77685;BME280;66844;46.092;18.268;2023-06-22T01:35:40;99442.81;;;24.28;69.45
77685;BME280;66844;46.092;18.268;2023-06-22T01:36:14;99452.13;;;24.34;70.20
77685;BME280;66844;46.092;18.268;2023-06-22T01:36:46;99453.81;;;24.35;70.17
77685;BME280;66844;46.092;18.268;2023-06-22T01:37:19;99437.19;;;24.30;69.85
77685;BME280;66844;46.092;18.268;2023-06-22T01:37:52;99451.78;;;24.37;70.13
77685;BME280;66844;46.092;18.268;2023-06-22T01:38:24;99446.50;;;24.35;70.00
77685;BME280;66844;46.092;18.268;2023-06-22T01:38:57;99449.25;;;24.27;70.37
77685;BME280;66844;46.092;18.268;2023-06-22T01:39:30;99439.25;;;24.20;70.50
77685;BME280;66844;46.092;18.268;2023-06-22T01:40:04;99442.66;;;24.22;70.45
77685;BME280;66844;46.092;18.268;2023-06-22T01:40:37;99437.22;;;24.22;70.79
77685;BME280;66844;46.092;18.268;2023-06-22T01:41:11;99440.13;;;24.20;71.20
77685;BME280;66844;46.092;18.268;2023-06-22T01:41:44;99440.31;;;24.19;70.50
77685;BME280;66844;46.092;18.268;2023-06-22T01:42:16;99439.63;;;24.17;70.59
77685;BME280;66844;46.092;18.268;2023-06-22T01:42:50;99441.31;;;24.18;70.41
77685;BME280;66844;46.092;18.268;2023-06-22T01:43:25;99440.13;;;24.20;70.73
77685;BME280;66844;46.092;18.268;2023-06-22T01:43:58;99435.38;;;24.22;70.09
77685;BME280;66844;46.092;18.268;2023-06-22T01:44:31;99442.66;;;24.22;70.41
77685;BME280;66844;46.092;18.268;2023-06-22T01:45:05;99436.22;;;24.23;70.23
77685;BME280;66844;46.092;18.268;2023-06-22T01:45:38;99432.44;;;24.24;69.49
77685;BME280;66844;46.092;18.268;2023-06-22T01:46:12;99439.22;;;24.28;70.13
77685;BME280;66844;46.092;18.268;2023-06-22T01:46:44;99442.63;;;24.30;69.53
77685;BME280;66844;46.092;18.268;2023-06-22T01:47:17;99441.59;;;24.31;69.67
77685;BME280;66844;46.092;18.268;2023-06-22T01:47:49;99440.56;;;24.32;69.83
77685;BME280;66844;46.092;18.268;2023-06-22T01:48:22;99438.06;;;24.30;69.80
77685;BME280;66844;46.092;18.268;2023-06-22T01:48:55;99438.22;;;24.29;69.66
77685;BME280;66844;46.092;18.268;2023-06-22T01:49:28;99436.34;;;24.29;70.43
77685;BME280;66844;46.092;18.268;2023-06-22T01:50:00;99440.28;;;24.27;69.95
77685;BME280;66844;46.092;18.268;2023-06-22T01:50:33;99434.84;;;24.27;70.20
77685;BME280;66844;46.092;18.268;2023-06-22T01:51:05;99437.72;;;24.25;70.63
77685;BME280;66844;46.092;18.268;2023-06-22T01:51:37;99446.03;;;24.24;69.93
77685;BME280;66844;46.092;18.268;2023-06-22T01:52:09;99437.41;;;24.20;70.62
77685;BME280;66844;46.092;18.268;2023-06-22T01:52:41;99445.38;;;24.22;69.98
77685;BME280;66844;46.092;18.268;2023-06-22T01:53:13;99445.56;;;24.20;70.22
77685;BME280;66844;46.092;18.268;2023-06-22T01:53:45;99443.03;;;24.19;70.72
77685;BME280;66844;46.092;18.268;2023-06-22T01:54:19;99443.19;;;24.17;70.81
77685;BME280;66844;46.092;18.268;2023-06-22T01:54:51;99440.47;;;24.17;70.12
77685;BME280;66844;46.092;18.268;2023-06-22T01:55:23;99434.38;;;24.15;70.32
77685;BME280;66844;46.092;18.268;2023-06-22T01:55:56;99445.41;;;24.13;71.08
77685;BME280;66844;46.092;18.268;2023-06-22T01:56:28;99427.91;;;24.08;71.38
77685;BME280;66844;46.092;18.268;2023-06-22T01:57:01;99438.59;;;24.09;71.45
77685;BME280;66844;46.092;18.268;2023-06-22T01:57:33;99443.38;;;24.07;70.62
77685;BME280;66844;46.092;18.268;2023-06-22T01:58:05;99437.75;;;24.09;70.89
77685;BME280;66844;46.092;18.268;2023-06-22T01:58:48;99439.44;;;24.10;70.50
77685;BME280;66844;46.092;18.268;2023-06-22T01:59:39;99431.66;;;24.07;70.93
77685;BME280;66844;46.092;18.268;2023-06-22T02:00:21;99445.25;;;24.07;70.71
77685;BME280;66844;46.092;18.268;2023-06-22T02:01:52;99435.56;;;24.04;71.47
77685;BME280;66844;46.092;18.268;2023-06-22T02:02:33;99438.97;;;24.06;71.26
77685;BME280;66844;46.092;18.268;2023-06-22T02:03:17;99440.81;;;24.06;71.58
77685;BME280;66844;46.092;18.268;2023-06-22T02:03:59;99439.13;;;24.05;70.67
77685;BME280;66844;46.092;18.268;2023-06-22T02:04:48;99440.81;;;24.06;71.18
77685;BME280;66844;46.092;18.268;2023-06-22T02:05:26;99438.09;;;24.06;70.94
77685;BME280;66844;46.092;18.268;2023-06-22T02:06:06;99446.44;;;24.04;71.05
77685;BME280;66844;46.092;18.268;2023-06-22T02:06:43;99445.75;;;24.02;71.79
77685;BME280;66844;46.092;18.268;2023-06-22T02:07:18;99454.28;;;23.99;71.34
77685;BME280;66844;46.092;18.268;2023-06-22T02:08:00;99451.91;;;23.96;71.92
77685;BME280;66844;46.092;18.268;2023-06-22T02:08:41;99450.19;;;23.95;71.84
77685;BME280;66844;46.092;18.268;2023-06-22T02:09:16;99456.16;;;23.91;71.97
77685;BME280;66844;46.092;18.268;2023-06-22T02:09:52;99443.78;;;23.88;71.82
77685;BME280;66844;46.092;18.268;2023-06-22T02:10:26;99455.31;;;23.90;72.06
77685;BME280;66844;46.092;18.268;2023-06-22T02:11:02;99452.78;;;23.89;71.88
77685;BME280;66844;46.092;18.268;2023-06-22T02:11:37;99449.72;;;23.84;72.94
77685;BME280;66844;46.092;18.268;2023-06-22T02:12:11;99453.44;;;23.83;73.04
77685;BME280;66844;46.092;18.268;2023-06-22T02:12:45;99446.50;;;23.80;73.17
77685;BME280;66844;46.092;18.268;2023-06-22T02:13:18;99451.44;;;23.77;73.44
77685;BME280;66844;46.092;18.268;2023-06-22T02:13:51;99460.97;;;23.73;73.54
77685;BME280;66844;46.092;18.268;2023-06-22T02:14:24;99453.31;;;23.68;73.45
77685;BME280;66844;46.092;18.268;2023-06-22T02:14:57;99457.06;;;23.67;73.45
77685;BME280;66844;46.092;18.268;2023-06-22T02:15:30;99459.78;;;23.67;73.46
77685;BME280;66844;46.092;18.268;2023-06-22T02:16:03;99465.22;;;23.67;74.13
77685;BME280;66844;46.092;18.268;2023-06-22T02:16:36;99467.25;;;23.65;74.06
77685;BME280;66844;46.092;18.268;2023-06-22T02:17:10;99463.03;;;23.62;73.57
77685;BME280;66844;46.092;18.268;2023-06-22T02:17:42;99461.31;;;23.61;73.76
77685;BME280;66844;46.092;18.268;2023-06-22T02:18:17;99462.31;;;23.60;74.00
77685;BME280;66844;46.092;18.268;2023-06-22T02:18:51;99465.03;;;23.60;74.63
77685;BME280;66844;46.092;18.268;2023-06-22T02:19:23;99460.81;;;23.58;74.47
77685;BME280;66844;46.092;18.268;2023-06-22T02:19:56;99460.66;;;23.59;73.94
77685;BME280;66844;46.092;18.268;2023-06-22T02:20:28;99463.53;;;23.58;73.81
77685;BME280;66844;46.092;18.268;2023-06-22T02:21:00;99460.47;;;23.53;74.73
77685;BME280;66844;46.092;18.268;2023-06-22T02:21:34;99462.53;;;23.51;74.28
77685;BME280;66844;46.092;18.268;2023-06-22T02:22:06;99464.72;;;23.47;74.83
77685;BME280;66844;46.092;18.268;2023-06-22T02:22:38;99457.94;;;23.43;75.30
77685;BME280;66844;46.092;18.268;2023-06-22T02:23:10;99462.13;;;23.38;75.15
77685;BME280;66844;46.092;18.268;2023-06-22T02:23:42;99463.53;;;23.34;75.95
77685;BME280;66844;46.092;18.268;2023-06-22T02:24:14;99457.56;;;23.30;75.68
77685;BME280;66844;46.092;18.268;2023-06-22T02:24:46;99462.81;;;23.24;76.10
77685;BME280;66844;46.092;18.268;2023-06-22T02:25:18;99461.97;;;23.23;76.06
77685;BME280;66844;46.092;18.268;2023-06-22T02:25:51;99467.75;;;23.20;76.27
77685;BME280;66844;46.092;18.268;2023-06-22T02:26:24;99456.03;;;23.11;76.12
77685;BME280;66844;46.092;18.268;2023-06-22T02:26:58;99470.13;;;22.99;77.14
77685;BME280;66844;46.092;18.268;2023-06-22T02:27:30;99470.94;;;22.91;77.22
77685;BME280;66844;46.092;18.268;2023-06-22T02:28:02;99465.69;;;22.90;77.98
77685;BME280;66844;46.092;18.268;2023-06-22T02:28:34;99472.81;;;22.91;77.54
77685;BME280;66844;46.092;18.268;2023-06-22T02:29:06;99473.16;;;22.96;76.74
77685;BME280;66844;46.092;18.268;2023-06-22T02:29:38;99468.75;;;22.95;76.88
77685;BME280;66844;46.092;18.268;2023-06-22T02:30:11;99475.69;;;22.97;76.96
77685;BME280;66844;46.092;18.268;2023-06-22T02:30:44;99477.91;;;23.02;77.28
77685;BME280;66844;46.092;18.268;2023-06-22T02:31:15;99474.00;;;23.04;76.86
77685;BME280;66844;46.092;18.268;2023-06-22T02:31:48;99485.56;;;23.06;76.92
77685;BME280;66844;46.092;18.268;2023-06-22T02:32:20;99486.06;;;23.10;76.33
77685;BME280;66844;46.092;18.268;2023-06-22T02:32:52;99482.16;;;23.12;76.45
77685;BME280;66844;46.092;18.268;2023-06-22T02:33:30;99477.09;;;23.17;76.21
77685;BME280;66844;46.092;18.268;2023-06-22T02:34:02;99482.84;;;23.23;75.69
77685;BME280;66844;46.092;18.268;2023-06-22T02:34:34;99482.69;;;23.24;75.60
77685;BME280;66844;46.092;18.268;2023-06-22T02:35:09;99476.06;;;23.27;75.72
77685;BME280;66844;46.092;18.268;2023-06-22T02:35:41;99475.75;;;23.30;75.67
77685;BME280;66844;46.092;18.268;2023-06-22T02:36:17;99471.13;;;23.30;75.54
77685;BME280;66844;46.092;18.268;2023-06-22T02:36:53;99475.06;;;23.36;74.67
77685;BME280;66844;46.092;18.268;2023-06-22T02:37:25;99476.06;;;23.35;75.34
77685;BME280;66844;46.092;18.268;2023-06-22T02:38:03;99478.13;;;23.41;75.33
77685;BME280;66844;46.092;18.268;2023-06-22T02:38:35;99477.09;;;23.42;75.15
77685;BME280;66844;46.092;18.268;2023-06-22T02:39:08;99485.25;;;23.42;75.23
77685;BME280;66844;46.092;18.268;2023-06-22T02:39:40;99479.97;;;23.40;75.46
77685;BME280;66844;46.092;18.268;2023-06-22T02:40:12;99482.69;;;23.40;75.25
77685;BME280;66844;46.092;18.268;2023-06-22T02:40:44;99482.53;;;23.42;74.53
77685;BME280;66844;46.092;18.268;2023-06-22T02:41:16;99472.00;;;23.39;74.80
77685;BME280;66844;46.092;18.268;2023-06-22T02:41:53;99476.41;;;23.40;75.36
77685;BME280;66844;46.092;18.268;2023-06-22T02:42:25;99478.81;;;23.43;75.02
77685;BME280;66844;46.092;18.268;2023-06-22T02:42:57;99478.81;;;23.43;74.76
77685;BME280;66844;46.092;18.268;2023-06-22T02:43:33;99474.72;;;23.39;74.42
77685;BME280;66844;46.092;18.268;2023-06-22T02:44:05;99482.00;;;23.38;74.85
77685;BME280;66844;46.092;18.268;2023-06-22T02:44:37;99475.41;;;23.33;75.54
77685;BME280;66844;46.092;18.268;2023-06-22T02:45:09;99477.94;;;23.34;75.46
77685;BME280;66844;46.092;18.268;2023-06-22T02:45:42;99470.28;;;23.38;74.71
77685;BME280;66844;46.092;18.268;2023-06-22T02:46:14;99475.41;;;23.49;74.54
77685;BME280;66844;46.092;18.268;2023-06-22T02:46:47;99482.69;;;23.40;75.11
77685;BME280;66844;46.092;18.268;2023-06-22T02:47:19;99481.84;;;23.40;75.39
77685;BME280;66844;46.092;18.268;2023-06-22T02:47:51;99479.31;;;23.46;74.52
77685;BME280;66844;46.092;18.268;2023-06-22T02:48:23;99481.53;;;23.51;74.61
77685;BME280;66844;46.092;18.268;2023-06-22T02:48:55;99487.13;;;23.49;74.63
77685;BME280;66844;46.092;18.268;2023-06-22T02:49:27;99482.88;;;23.55;73.46
77685;BME280;66844;46.092;18.268;2023-06-22T02:49:59;99479.47;;;23.61;73.46
77685;BME280;66844;46.092;18.268;2023-06-22T02:50:32;99474.53;;;23.64;73.37
77685;BME280;66844;46.092;18.268;2023-06-22T02:51:04;99475.41;;;23.65;73.10
77685;BME280;66844;46.092;18.268;2023-06-22T02:51:38;99482.69;;;23.64;73.37
77685;BME280;66844;46.092;18.268;2023-06-22T02:52:11;99475.91;;;23.60;73.17
77685;BME280;66844;46.092;18.268;2023-06-22T02:52:43;99474.56;;;23.56;73.88
77685;BME280;66844;46.092;18.268;2023-06-22T02:53:15;99477.97;;;23.58;73.76
77685;BME280;66844;46.092;18.268;2023-06-22T02:53:47;99475.41;;;23.57;73.79
77685;BME280;66844;46.092;18.268;2023-06-22T02:54:19;99483.19;;;23.60;73.92
77685;BME280;66844;46.092;18.268;2023-06-22T02:54:52;99482.88;;;23.63;73.47
77685;BME280;66844;46.092;18.268;2023-06-22T02:55:24;99481.34;;;23.60;73.66
77685;BME280;66844;46.092;18.268;2023-06-22T02:55:56;99486.41;;;23.63;73.74
77685;BME280;66844;46.092;18.268;2023-06-22T02:56:31;99485.59;;;23.63;72.92
77685;BME280;66844;46.092;18.268;2023-06-22T02:57:03;99486.63;;;23.62;73.12
77685;BME280;66844;46.092;18.268;2023-06-22T02:57:35;99487.63;;;23.61;73.15
77685;BME280;66844;46.092;18.268;2023-06-22T02:58:07;99481.19;;;23.62;73.37
77685;BME280;66844;46.092;18.268;2023-06-22T02:58:40;99483.03;;;23.61;72.84
77685;BME280;66844;46.092;18.268;2023-06-22T02:59:12;99482.19;;;23.61;73.89
77685;BME280;66844;46.092;18.268;2023-06-22T02:59:44;99475.91;;;23.60;73.60
77685;BME280;66844;46.092;18.268;2023-06-22T03:00:16;99480.47;;;23.60;74.02
77685;BME280;66844;46.092;18.268;2023-06-22T03:00:51;99476.09;;;23.59;73.16
77685;BME280;66844;46.092;18.268;2023-06-22T03:01:24;99487.81;;;23.59;73.14
77685;BME280;66844;46.092;18.268;2023-06-22T03:01:56;99478.81;;;23.59;73.65
77685;BME280;66844;46.092;18.268;2023-06-22T03:02:29;99475.41;;;23.49;73.37
77685;BME280;66844;46.092;18.268;2023-06-22T03:03:01;99485.59;;;23.55;73.76
77685;BME280;66844;46.092;18.268;2023-06-22T03:03:33;99490.34;;;23.53;73.63
77685;BME280;66844;46.092;18.268;2023-06-22T03:04:07;99482.72;;;23.48;73.57
77685;BME280;66844;46.092;18.268;2023-06-22T03:04:39;99486.09;;;23.50;74.26
77685;BME280;66844;46.092;18.268;2023-06-22T03:05:11;99491.38;;;23.52;73.57